createdAt,value
2022-09-03T00:06:16.643Z,14.54
2022-09-03T00:21:12.856Z,14.24
2022-09-03T00:36:08.747Z,14.31
2022-09-03T00:51:05.002Z,14.04
2022-09-03T01:06:01.960Z,13.9
2022-09-03T01:20:57.410Z,13.88
2022-09-03T01:35:53.058Z,13.88
2022-09-03T01:50:49.894Z,13.93
2022-09-03T02:05:46.530Z,13.95
2022-09-03T02:20:42.852Z,13.95
2022-09-03T02:35:39.255Z,14.02
2022-09-03T02:50:35.380Z,14.07
2022-09-03T03:20:27.517Z,13.87
2022-09-03T03:35:23.972Z,14.02
2022-09-03T03:50:20.223Z,14.16
2022-09-03T04:05:16.660Z,14.37
2022-09-03T04:20:12.920Z,14.42
2022-09-03T04:35:09.335Z,14.31
2022-09-03T04:50:05.517Z,14.56
2022-09-03T05:05:02.468Z,14.69
2022-09-03T05:19:59.322Z,15.62
2022-09-03T05:34:55.684Z,15.89
2022-09-03T05:49:51.900Z,15.87
2022-09-03T06:04:47.950Z,16.07
2022-09-03T06:19:44.285Z,16.32
2022-09-03T06:34:40.868Z,16.6
2022-09-03T06:49:37.185Z,16.3
2022-09-03T07:04:32.928Z,16.12
2022-09-03T07:19:28.983Z,16.86
2022-09-03T07:34:26.345Z,16.42
2022-09-03T07:49:21.749Z,15.52
2022-09-03T08:04:17.753Z,16.02
2022-09-03T08:19:14.411Z,16.5
2022-09-03T08:34:11.046Z,17.1
2022-09-03T08:49:07.918Z,17.93
2022-09-03T09:04:04.424Z,17.9
2022-09-03T09:19:00.668Z,18.83
2022-09-03T09:33:57.197Z,19.66
2022-09-03T09:48:53.900Z,22.46
2022-09-03T10:03:51.170Z,21.17
2022-09-03T10:18:47.556Z,20.99
2022-09-03T10:33:43.739Z,20.61
2022-09-03T10:48:39.538Z,20.82
2022-09-03T11:03:35.889Z,22.57
2022-09-03T11:18:32.568Z,25.51
2022-09-03T11:33:29.917Z,23.05
2022-09-03T11:48:26.702Z,24.65
2022-09-03T12:03:23.560Z,24.19
2022-09-03T12:18:20.307Z,25.33
2022-09-03T12:33:17.081Z,26.03
2022-09-03T12:48:13.755Z,24.46
2022-09-03T13:03:10.080Z,24.33
2022-09-03T13:18:05.907Z,24.65
2022-09-03T13:33:01.384Z,24.86
2022-09-03T13:47:57.226Z,25.1
2022-09-03T14:02:53.293Z,24.92
2022-09-03T14:17:48.596Z,24.82
2022-09-03T14:32:44.800Z,26.02
2022-09-03T14:47:41.329Z,25.03
2022-09-03T15:02:37.341Z,24.54
2022-09-03T15:17:32.876Z,24.33
2022-09-03T15:32:28.043Z,20.65
2022-09-03T15:47:23.071Z,18.26
2022-09-03T16:02:17.726Z,17.21
2022-09-03T16:17:12.797Z,17.25
2022-09-03T16:32:08.557Z,17.08
2022-09-03T16:47:03.992Z,17.26
2022-09-03T17:01:59.745Z,17.43
2022-09-03T17:16:56.351Z,17.65
2022-09-03T17:31:52.668Z,17.93
2022-09-03T17:46:48.700Z,17.81
2022-09-03T18:01:44.832Z,17.85
2022-09-03T18:16:41.226Z,17.62
2022-09-03T18:31:37.687Z,17.56
2022-09-03T19:01:29.140Z,17.25
2022-09-03T19:16:25.368Z,17.14
2022-09-03T19:31:21.473Z,16.92
2022-09-03T19:46:17.487Z,16.68
2022-09-03T20:01:14.109Z,16.35
2022-09-03T20:16:10.171Z,16.21
2022-09-03T20:31:06.393Z,16.17
2022-09-03T20:46:02.112Z,16.31
2022-09-03T21:00:58.169Z,16.25
2022-09-03T21:15:56.751Z,16.04
2022-09-03T21:30:50.550Z,15.82
2022-09-03T21:45:46.174Z,15.76
2022-09-03T22:00:42.615Z,15.79
2022-09-03T22:15:38.698Z,15.24
2022-09-03T22:30:35.034Z,15.08
2022-09-03T22:45:31.000Z,15.04
2022-09-03T23:00:27.086Z,14.77
2022-09-03T23:15:23.160Z,14.94
2022-09-03T23:30:19.606Z,15.46
2022-09-03T23:45:15.932Z,15.71
